Terminal Aerodrome Forecast
Issued by NWS Twin Cities, MN

Home | Current Version | Previous Version | Graphics & Text | Print | Product List | Glossary On
Versions: 1 2 3 4 5 6 7 8 9 10 11 12 13 14 15
419
FTUS43 KMPX 180520
TAFSTC
TAF
KSTC 180520Z 1806/1906 25009KT P6SM SKC
     FM181100 29006KT 6SM BR SKC
     FM181400 27005KT P6SM BKN200
     FM190000 16003KT P6SM BKN200=

USA.gov is the U.S. government's official web portal to all federal, state and local government web resources and services.